Time;durP1;ratioP1;P1;durP2;ratioP2;P2;SDS_P1;SDS_P2;PMS_P1;PMS_P2;Temp;Humidity;BMP_temperature;BMP_pressure;BME280_temperature;BME280_humidity;BME280_pressure;Samples;Min_cycle;Max_cycle;Signal;HPM_P1;HPM_P2
2022/07/02 00:02:00;;;;;;;6.20;4.37;;;;;;;15.24;100.00;101660.81;5053084;28;20481;-69
2022/07/02 00:04:30;;;;;;;5.53;4.43;;;;;;;15.18;100.00;101663.94;5052969;28;20522;-69
2022/07/02 00:06:57;;;;;;;4.93;3.80;;;;;;;15.22;100.00;101673.94;5052506;28;20932;-69
2022/07/02 00:09:25;;;;;;;6.73;4.53;;;;;;;15.27;100.00;101662.09;5052433;28;21083;-69
2022/07/02 00:11:53;;;;;;;4.33;3.30;;;;;;;15.24;100.00;101669.00;5052577;28;20545;-69
2022/07/02 00:14:19;;;;;;;8.27;4.90;;;;;;;15.24;100.00;101668.19;5052827;28;20533;-69
2022/07/02 00:16:46;;;;;;;6.33;4.30;;;;;;;15.29;100.00;101671.63;5052554;28;21031;-68
2022/07/02 00:19:14;;;;;;;5.80;4.57;;;;;;;15.32;100.00;101668.28;5055828;28;21029;-68
2022/07/02 00:21:41;;;;;;;11.60;4.90;;;;;;;15.31;100.00;101665.84;5056615;28;20476;-68
2022/07/02 00:24:08;;;;;;;5.60;4.33;;;;;;;15.30;100.00;101665.03;5056336;28;20537;-69
2022/07/02 00:26:39;;;;;;;8.70;4.77;;;;;;;15.30;100.00;101670.50;5056121;28;20929;-68
2022/07/02 00:29:12;;;;;;;5.50;4.50;;;;;;;15.27;100.00;101668.41;5056458;28;20462;-68
2022/07/02 00:31:39;;;;;;;6.43;4.77;;;;;;;15.28;100.00;101675.47;5056480;28;20426;-67
2022/07/02 00:34:06;;;;;;;8.20;5.60;;;;;;;15.30;100.00;101673.22;5056435;28;20444;-67
2022/07/02 00:36:33;;;;;;;9.33;5.57;;;;;;;15.35;100.00;101678.56;5056060;28;20952;-66
2022/07/02 00:39:00;;;;;;;8.60;5.63;;;;;;;15.32;100.00;101673.75;5056097;28;20561;-69
2022/07/02 00:41:28;;;;;;;6.77;4.27;;;;;;;15.33;100.00;101674.53;5056431;28;20469;-70
2022/07/02 00:43:58;;;;;;;5.53;4.07;;;;;;;15.27;100.00;101675.75;5055969;28;20966;-69
2022/07/02 00:46:26;;;;;;;6.43;5.00;;;;;;;15.24;100.00;101666.25;5055627;28;20568;-69
2022/07/02 00:48:54;;;;;;;6.60;4.57;;;;;;;15.15;100.00;101668.09;5056018;28;20548;-69
2022/07/02 00:51:20;;;;;;;7.77;4.80;;;;;;;15.17;100.00;101670.50;5056016;28;20549;-67
2022/07/02 00:53:47;;;;;;;6.73;4.30;;;;;;;15.15;100.00;101673.56;5055893;28;20541;-67
2022/07/02 00:56:14;;;;;;;9.27;5.83;;;;;;;15.16;100.00;101674.34;5055954;28;20529;-67
2022/07/02 00:58:41;;;;;;;6.77;5.90;;;;;;;15.10;100.00;101674.47;5055868;28;20497;-67
2022/07/02 01:01:09;;;;;;;6.27;4.63;;;;;;;15.08;100.00;101673.94;5055878;28;20545;-67
2022/07/02 01:03:38;;;;;;;8.63;5.37;;;;;;;15.10;100.00;101676.41;5055375;28;20983;-68
2022/07/02 01:06:05;;;;;;;8.30;5.30;;;;;;;15.06;100.00;101680.84;5055822;28;20517;-67
2022/07/02 01:11:18;;;;;;;9.20;5.57;;;;;;;14.85;100.00;101688.63;5055454;28;20410;-66
2022/07/02 01:13:45;;;;;;;6.87;4.80;;;;;;;14.79;100.00;101679.72;5055640;28;20473;-67
2022/07/02 01:16:13;;;;;;;8.53;5.50;;;;;;;14.77;100.00;101687.41;5055555;28;20474;-68
2022/07/02 01:18:39;;;;;;;9.60;5.50;;;;;;;14.82;100.00;101675.56;5055504;28;20553;-67
2022/07/02 01:21:06;;;;;;;6.57;4.47;;;;;;;14.75;100.00;101672.47;5055523;28;20449;-68
2022/07/02 01:23:34;;;;;;;6.80;5.03;;;;;;;14.86;100.00;101685.56;5055409;28;20456;-65
2022/07/02 01:26:01;;;;;;;8.30;4.93;;;;;;;14.94;100.00;101683.25;5055365;28;20438;-70
2022/07/02 01:28:28;;;;;;;6.10;4.90;;;;;;;14.98;100.00;101671.44;5055244;28;20521;-72
2022/07/02 01:30:55;;;;;;;8.63;5.00;;;;;;;15.01;100.00;101678.22;5054216;28;20478;-67
2022/07/02 01:33:21;;;;;;;7.23;4.70;;;;;;;15.04;100.00;101677.59;5054968;28;20886;-67
2022/07/02 01:35:48;;;;;;;8.20;6.07;;;;;;;15.05;100.00;101679.19;5054855;28;21021;-67
2022/07/02 01:38:15;;;;;;;9.60;5.73;;;;;;;15.08;100.00;101684.06;5055060;28;20470;-66
2022/07/02 01:40:43;;;;;;;11.23;6.17;;;;;;;15.07;100.00;101687.91;5055160;28;20478;-67
2022/07/02 01:43:09;;;;;;;8.60;5.13;;;;;;;15.09;100.00;101688.41;5054833;28;20481;-66
2022/07/02 01:45:36;;;;;;;9.30;5.60;;;;;;;15.07;100.00;101687.91;5054969;28;20492;-67
2022/07/02 01:48:03;;;;;;;10.00;5.80;;;;;;;15.10;100.00;101690.03;5054635;28;21110;-67
2022/07/02 01:50:29;;;;;;;7.17;5.30;;;;;;;15.08;100.00;101687.59;5054834;28;20553;-67
2022/07/02 01:52:56;;;;;;;11.17;6.40;;;;;;;15.10;100.00;101692.78;5054904;28;20534;-67
2022/07/02 01:55:24;;;;;;;8.07;5.70;;;;;;;15.14;100.00;101686.41;5054799;28;20450;-67
2022/07/02 01:57:53;;;;;;;8.07;5.40;;;;;;;15.19;100.00;101688.22;5054767;28;20438;-67
2022/07/02 02:00:20;;;;;;;8.00;5.90;;;;;;;15.16;100.00;101686.09;5054368;28;21059;-67
2022/07/02 02:02:47;;;;;;;7.70;5.43;;;;;;;15.20;100.00;101698.00;5054591;28;20470;-67
2022/07/02 02:05:14;;;;;;;8.90;5.63;;;;;;;15.26;100.00;101695.97;5054777;28;20512;-67
2022/07/02 02:07:40;;;;;;;12.17;6.37;;;;;;;15.24;100.00;101696.28;5054349;28;20513;-67
2022/07/02 02:10:08;;;;;;;12.47;6.57;;;;;;;15.24;100.00;101699.03;5054091;28;20474;-66
2022/07/02 02:12:35;;;;;;;7.10;5.70;;;;;;;15.16;100.00;101694.28;5054209;28;20813;-67
2022/07/02 02:15:04;;;;;;;8.90;5.17;;;;;;;15.21;100.00;101704.28;5054136;28;20545;-67
2022/07/02 02:17:30;;;;;;;8.00;5.47;;;;;;;15.16;100.00;101696.19;5054433;28;20445;-67
2022/07/02 02:19:57;;;;;;;9.70;6.00;;;;;;;15.14;100.00;101701.97;5054110;28;20500;-67
2022/07/02 02:22:24;;;;;;;7.90;4.33;;;;;;;15.15;100.00;101695.41;5054290;28;20521;-66
2022/07/02 02:24:51;;;;;;;18.67;5.53;;;;;;;15.17;100.00;101706.78;5054203;28;20442;-68
2022/07/02 02:27:17;;;;;;;6.80;5.10;;;;;;;15.25;100.00;101711.53;5053824;28;20573;-67
2022/07/02 02:29:44;;;;;;;7.90;5.10;;;;;;;15.27;100.00;101716.69;5053817;28;20987;-66
2022/07/02 02:32:12;;;;;;;11.37;5.63;;;;;;;15.25;100.00;101711.53;5054066;28;20446;-67
2022/07/02 02:34:38;;;;;;;9.83;5.40;;;;;;;15.17;100.00;101709.53;5054189;28;20926;-68
2022/07/02 02:37:05;;;;;;;8.73;6.00;;;;;;;15.12;100.00;101713.16;5054069;28;20534;-67
2022/07/02 02:39:32;;;;;;;9.93;6.00;;;;;;;15.17;100.00;101716.91;5053614;28;20497;-67
2022/07/02 02:41:58;;;;;;;7.23;4.67;;;;;;;15.06;100.00;101719.06;5053426;28;20542;-66
2022/07/02 02:44:25;;;;;;;11.87;5.57;;;;;;;14.99;100.00;101724.88;5054008;28;20476;-67
2022/07/02 02:46:52;;;;;;;6.70;4.30;;;;;;;15.00;100.00;101725.69;5053779;28;20544;-66
2022/07/02 02:49:20;;;;;;;8.63;5.47;;;;;;;14.98;100.00;101727.94;5053478;28;20545;-66
2022/07/02 02:51:46;;;;;;;11.43;6.30;;;;;;;14.96;100.00;101735.59;5053493;28;20545;-67
2022/07/02 02:54:13;;;;;;;8.50;6.20;;;;;;;14.94;100.00;101729.66;5053771;28;20822;-67
2022/07/02 02:56:39;;;;;;;8.73;6.13;;;;;;;14.94;100.00;101729.66;5053390;28;20952;-67
2022/07/02 02:59:06;;;;;;;10.30;5.60;;;;;;;14.90;100.00;101732.16;5053570;28;20874;-67
2022/07/02 03:01:32;;;;;;;8.00;5.87;;;;;;;14.84;100.00;101734.19;5053681;28;20546;-67
2022/07/02 03:03:59;;;;;;;13.87;7.20;;;;;;;14.86;100.00;101729.22;5053570;28;20533;-67
2022/07/02 03:06:27;;;;;;;7.27;4.67;;;;;;;14.75;100.00;101737.91;5053537;28;20438;-67
2022/07/02 03:08:53;;;;;;;10.20;5.43;;;;;;;14.60;100.00;101731.59;5053113;28;20592;-67
2022/07/02 03:11:20;;;;;;;8.63;6.07;;;;;;;14.59;100.00;101732.72;5053513;28;20430;-66
2022/07/02 03:13:47;;;;;;;9.10;5.37;;;;;;;14.62;100.00;101737.59;5053455;28;20441;-66
2022/07/02 03:16:13;;;;;;;9.17;5.20;;;;;;;14.59;100.00;101740.91;5053325;28;20442;-66
2022/07/02 03:18:40;;;;;;;6.17;4.90;;;;;;;14.64;100.00;101751.72;5053017;28;21067;-68
2022/07/02 03:21:06;;;;;;;9.20;6.13;;;;;;;14.66;100.00;101743.25;5053309;28;20814;-68
2022/07/02 03:23:34;;;;;;;8.57;5.70;;;;;;;14.66;100.00;101753.34;5053149;28;20446;-68
2022/07/02 03:26:01;;;;;;;9.13;5.60;;;;;;;14.67;100.00;101761.22;5053790;28;20446;-68
2022/07/02 03:28:27;;;;;;;7.83;5.33;;;;;;;14.66;100.00;101759.63;5053088;28;20488;-67
2022/07/02 03:30:54;;;;;;;5.90;4.27;;;;;;;14.69;100.00;101763.66;5053140;28;20473;-67
2022/07/02 03:33:20;;;;;;;8.13;5.83;;;;;;;14.70;100.00;101760.63;5053249;28;20446;-67
2022/07/02 03:35:47;;;;;;;6.47;5.33;;;;;;;14.71;100.00;101762.25;5053133;28;20438;-66
2022/07/02 03:38:14;;;;;;;10.30;7.07;;;;;;;14.70;100.00;101768.81;5053282;28;20436;-68
2022/07/02 03:40:42;;;;;;;9.47;5.20;;;;;;;14.68;100.00;101771.03;5053299;28;20482;-67
2022/07/02 03:43:08;;;;;;;6.67;4.97;;;;;;;14.76;100.00;101764.88;5053224;28;20443;-66
2022/07/02 03:45:35;;;;;;;9.90;6.13;;;;;;;14.72;100.00;101769.31;5052839;28;20452;-67
2022/07/02 03:48:01;;;;;;;9.43;5.70;;;;;;;14.66;100.00;101769.72;5052686;28;20573;-66
2022/07/02 03:50:28;;;;;;;8.13;5.40;;;;;;;14.60;100.00;101777.97;5053676;28;20902;-66
2022/07/02 03:52:55;;;;;;;7.00;4.50;;;;;;;14.61;100.00;101781.53;5054215;28;20442;-66
2022/07/02 03:55:21;;;;;;;9.60;5.77;;;;;;;14.66;100.00;101780.63;5057164;28;20448;-67
2022/07/02 03:57:49;;;;;;;10.83;6.07;;;;;;;14.73;100.00;101778.31;5056702;28;20532;-66
2022/07/02 04:00:16;;;;;;;9.77;6.50;;;;;;;14.83;100.00;101776.22;5056980;28;20468;-66
2022/07/02 04:02:43;;;;;;;8.23;4.60;;;;;;;14.89;100.00;101785.13;5056968;28;20484;-67
2022/07/02 04:05:10;;;;;;;10.00;6.00;;;;;;;14.91;100.00;101787.53;5056926;28;20444;-66
2022/07/02 04:07:36;;;;;;;8.93;5.70;;;;;;;15.01;100.00;101793.63;5056846;28;20490;-68
2022/07/02 04:10:03;;;;;;;8.13;5.17;;;;;;;15.05;100.00;101799.28;5056361;28;20484;-66
2022/07/02 04:12:30;;;;;;;11.27;6.27;;;;;;;15.11;100.00;101795.34;5081944;22;20494;-68
2022/07/02 04:14:58;;;;;;;8.97;5.70;;;;;;;15.18;100.00;101797.66;5056691;28;20438;-68
2022/07/02 04:17:25;;;;;;;7.53;4.80;;;;;;;15.26;100.00;101805.16;5056641;28;20525;-69
2022/07/02 04:19:52;;;;;;;12.03;6.00;;;;;;;15.30;100.00;101796.06;5056540;28;20452;-68
2022/07/02 04:22:18;;;;;;;10.53;4.90;;;;;;;15.39;100.00;101793.44;5056468;28;20464;-68
2022/07/02 04:24:45;;;;;;;10.67;6.50;;;;;;;15.44;100.00;101798.78;5056157;28;20896;-69
2022/07/02 04:27:11;;;;;;;8.43;6.13;;;;;;;15.53;100.00;101794.22;5056036;28;20437;-69
2022/07/02 04:29:38;;;;;;;10.37;5.97;;;;;;;15.59;100.00;101797.69;5056094;28;20532;-69
2022/07/02 04:32:07;;;;;;;7.63;5.33;;;;;;;15.60;100.00;101800.09;5055842;28;20979;-69
2022/07/02 04:34:34;;;;;;;9.77;5.90;;;;;;;15.63;100.00;101804.16;5056044;28;20521;-69
2022/07/02 04:37:00;;;;;;;9.47;6.70;;;;;;;15.68;100.00;101801.34;5056168;28;20446;-69
2022/07/02 04:39:27;;;;;;;8.70;5.70;;;;;;;15.71;100.00;101803.44;5056326;28;20525;-69
2022/07/02 04:41:53;;;;;;;10.80;7.13;;;;;;;15.75;100.00;101806.38;5055749;28;21001;-69
2022/07/02 04:44:20;;;;;;;9.50;6.63;;;;;;;15.82;100.00;101804.88;5056101;28;20484;-69
2022/07/02 04:46:47;;;;;;;8.90;5.20;;;;;;;15.84;100.00;101810.81;5055711;28;20444;-69
2022/07/02 04:49:15;;;;;;;8.03;5.47;;;;;;;15.87;100.00;101810.22;5055904;28;20569;-69
2022/07/02 04:51:42;;;;;;;7.43;4.70;;;;;;;15.89;100.00;101812.63;5055921;28;20446;-69
2022/07/02 04:54:08;;;;;;;7.87;6.10;;;;;;;15.96;100.00;101812.22;5056250;28;20481;-69
2022/07/02 04:56:35;;;;;;;8.17;5.60;;;;;;;16.00;100.00;101807.75;5055878;28;20438;-69
2022/07/02 04:59:02;;;;;;;10.80;6.13;;;;;;;16.04;100.00;101809.56;5055520;28;20991;-69
2022/07/02 05:01:29;;;;;;;5.70;4.23;;;;;;;16.08;100.00;101805.13;5055416;28;20940;-69
2022/07/02 05:03:56;;;;;;;9.57;5.10;;;;;;;16.14;100.00;101819.47;5055633;28;20573;-69
2022/07/02 05:06:24;;;;;;;8.30;5.50;;;;;;;16.20;100.00;101809.22;5055689;28;20446;-69
2022/07/02 05:08:51;;;;;;;11.50;4.57;;;;;;;16.25;100.00;101817.31;5055529;28;20572;-69
2022/07/02 05:11:19;;;;;;;6.93;4.00;;;;;;;16.31;100.00;101814.16;5055331;28;20438;-68
2022/07/02 05:13:46;;;;;;;7.77;4.97;;;;;;;16.35;100.00;101820.63;5055061;28;20565;-69
2022/07/02 05:16:13;;;;;;;6.97;4.67;;;;;;;16.38;100.00;101817.28;5055517;28;20875;-69
2022/07/02 05:18:40;;;;;;;5.37;4.30;;;;;;;16.44;100.00;101822.63;5055434;28;20521;-69
2022/07/02 05:21:06;;;;;;;6.63;4.70;;;;;;;16.50;100.00;101818.63;5055394;28;20529;-69
2022/07/02 05:23:34;;;;;;;4.73;3.60;;;;;;;16.54;100.00;101831.38;5055336;28;20557;-69
2022/07/02 05:26:01;;;;;;;7.90;5.20;;;;;;;16.62;100.00;101830.63;5055319;28;20442;-69
2022/07/02 05:28:28;;;;;;;6.30;4.50;;;;;;;16.70;100.00;101834.56;5054865;28;20496;-69
2022/07/02 05:30:54;;;;;;;6.70;3.93;;;;;;;16.76;100.00;101847.00;5055209;28;20446;-69
2022/07/02 05:33:21;;;;;;;7.30;5.03;;;;;;;16.75;99.29;101839.13;5055082;28;20462;-69
2022/07/02 05:35:48;;;;;;;5.90;3.97;;;;;;;16.77;98.85;101847.81;5055125;28;20454;-69
2022/07/02 05:38:14;;;;;;;4.83;3.60;;;;;;;16.88;98.85;101844.53;5055097;28;20434;-68
2022/07/02 05:40:42;;;;;;;8.67;5.10;;;;;;;17.00;96.88;101845.84;5054976;28;20445;-70
2022/07/02 05:43:09;;;;;;;5.07;3.40;;;;;;;17.07;97.52;101843.50;5054994;28;20855;-72
2022/07/02 05:45:35;;;;;;;8.63;5.03;;;;;;;17.12;97.18;101843.34;5054748;28;20522;-70
2022/07/02 05:48:02;;;;;;;5.03;3.70;;;;;;;17.18;96.07;101853.06;5054866;28;20478;-70
2022/07/02 05:50:29;;;;;;;7.13;4.50;;;;;;;17.24;96.18;101854.53;5054928;28;20521;-70
2022/07/02 05:52:55;;;;;;;4.60;3.50;;;;;;;17.28;96.52;101858.25;5054741;28;20549;-70
2022/07/02 05:55:22;;;;;;;6.67;4.67;;;;;;;17.33;96.00;101855.38;5054781;28;20446;-70
2022/07/02 05:57:50;;;;;;;5.63;3.17;;;;;;;17.43;94.48;101853.47;5054754;28;20545;-72
2022/07/02 06:00:16;;;;;;;10.23;3.87;;;;;;;17.51;94.64;101860.94;5054402;28;20987;-69
2022/07/02 06:02:43;;;;;;;7.27;4.00;;;;;;;17.59;95.58;101857.41;5054561;28;20494;-69
2022/07/02 06:07:59;;;;;;;6.60;4.27;;;;;;;17.64;93.14;101868.22;4997857;28;20433;-69
2022/07/02 06:10:26;;;;;;;5.87;4.10;;;;;;;17.72;92.34;101872.94;5054553;28;20419;-68
2022/07/02 06:12:54;;;;;;;7.20;3.87;;;;;;;17.82;91.34;101874.59;5054098;28;20561;-69
2022/07/02 06:15:21;;;;;;;4.70;3.57;;;;;;;17.92;90.95;101878.97;5053963;28;20521;-69
2022/07/02 06:17:49;;;;;;;4.23;3.50;;;;;;;18.01;90.82;101885.28;5054262;28;20465;-69
2022/07/02 06:20:16;;;;;;;3.70;2.63;;;;;;;18.06;90.75;101890.63;5054088;28;20534;-69
2022/07/02 06:22:42;;;;;;;10.03;3.90;;;;;;;18.12;89.12;101889.34;5053974;28;20549;-69
2022/07/02 06:25:10;;;;;;;4.50;3.23;;;;;;;18.15;87.90;101889.53;5054133;28;20442;-69
2022/07/02 06:27:38;;;;;;;11.67;4.37;;;;;;;18.13;88.29;101896.44;5054009;28;20533;-69
2022/07/02 06:30:09;;;;;;;4.13;3.67;;;;;;;18.23;87.44;101898.88;5053939;28;20901;-69
2022/07/02 06:32:36;;;;;;;3.97;3.00;;;;;;;18.30;87.99;101899.22;5053625;28;20844;-69
2022/07/02 06:35:04;;;;;;;6.50;3.17;;;;;;;18.31;88.43;101895.34;5054006;28;20439;-69
2022/07/02 06:37:31;;;;;;;4.30;3.13;;;;;;;18.39;86.26;101902.78;5053868;28;20823;-69
2022/07/02 06:39:57;;;;;;;4.30;3.90;;;;;;;18.46;85.97;101896.00;5053897;28;20444;-69
2022/07/02 06:42:26;;;;;;;5.37;2.73;;;;;;;18.46;85.88;101901.47;5053799;28;20490;-69
2022/07/02 06:44:53;;;;;;;4.20;3.20;;;;;;;18.57;85.94;101897.31;5053812;28;20453;-69
2022/07/02 06:47:22;;;;;;;6.17;3.80;;;;;;;18.69;85.21;101905.72;5053802;28;20875;-69
2022/07/02 06:49:49;;;;;;;11.63;3.93;;;;;;;18.73;86.50;101905.91;5053639;28;20486;-70
2022/07/02 06:52:17;;;;;;;3.70;3.03;;;;;;;18.77;84.80;101902.19;5053418;28;20466;-70
2022/07/02 06:54:44;;;;;;;5.80;3.60;;;;;;;18.83;82.69;101911.84;5053733;28;20444;-70
2022/07/02 06:57:11;;;;;;;3.73;2.77;;;;;;;18.86;83.91;101908.47;5053620;28;20449;-70
2022/07/02 06:59:38;;;;;;;5.30;3.17;;;;;;;18.99;82.06;101911.34;5053540;28;20434;-72
2022/07/02 07:02:05;;;;;;;6.27;3.43;;;;;;;19.03;81.73;101920.53;5053181;28;21062;-72
2022/07/02 07:04:35;;;;;;;3.50;2.90;;;;;;;19.08;79.66;101920.38;5053477;28;20441;-68
2022/07/02 07:07:04;;;;;;;4.37;2.40;;;;;;;19.10;79.70;101909.88;5053106;28;20446;-70
2022/07/02 07:09:31;;;;;;;7.10;3.00;;;;;;;19.14;80.54;101917.13;5053373;28;20488;-71
2022/07/02 07:11:59;;;;;;;3.43;2.70;;;;;;;19.20;78.98;101915.00;5053095;28;20545;-72
2022/07/02 07:14:26;;;;;;;2.63;1.93;;;;;;;19.23;80.86;101914.38;5053388;28;20438;-71
2022/07/02 07:16:52;;;;;;;2.07;1.80;;;;;;;19.26;82.25;101919.22;5053223;28;20533;-70
2022/07/02 07:19:19;;;;;;;4.00;2.33;;;;;;;19.36;78.75;101913.38;5052945;28;20948;-70
2022/07/02 07:21:47;;;;;;;2.13;1.40;;;;;;;19.49;75.35;101910.75;5052937;28;20444;-70
2022/07/02 07:24:13;;;;;;;3.07;2.30;;;;;;;19.59;73.92;101918.63;5052868;28;20454;-70
2022/07/02 07:26:40;;;;;;;2.87;1.90;;;;;;;19.68;73.75;101913.91;5052659;28;20521;-70
2022/07/02 07:29:07;;;;;;;3.50;2.43;;;;;;;19.65;77.41;101923.63;5052724;28;20485;-70
2022/07/02 07:31:34;;;;;;;2.60;1.90;;;;;;;19.69;75.26;101925.72;5052899;28;20464;-70
2022/07/02 07:34:02;;;;;;;2.87;2.03;;;;;;;19.76;74.25;101939.78;5052707;28;20866;-69
2022/07/02 07:36:29;;;;;;;2.53;1.80;;;;;;;19.88;72.49;101932.44;5052787;28;21030;-70
2022/07/02 07:38:57;;;;;;;3.50;2.03;;;;;;;19.87;71.53;101936.31;5053134;28;20449;-70
2022/07/02 07:41:24;;;;;;;3.70;2.20;;;;;;;19.94;73.23;101926.75;5052805;28;20835;-70
2022/07/02 07:43:52;;;;;;;2.13;1.80;;;;;;;20.04;75.77;101934.59;5052573;28;20461;-70
2022/07/02 07:46:19;;;;;;;2.87;1.80;;;;;;;20.10;71.73;101939.59;5052937;28;20442;-70
2022/07/02 07:48:46;;;;;;;2.90;1.87;;;;;;;20.27;70.32;101933.16;5052849;28;20485;-70
2022/07/02 07:51:13;;;;;;;2.70;2.07;;;;;;;20.35;66.24;101942.50;5053193;28;20474;-69
2022/07/02 07:53:40;;;;;;;1.40;1.13;;;;;;;20.45;65.98;101941.31;5052871;28;20454;-70
2022/07/02 07:56:08;;;;;;;2.33;1.77;;;;;;;20.46;67.53;101948.44;5052812;28;20438;-70
2022/07/02 07:58:36;;;;;;;1.30;1.10;;;;;;;20.52;66.06;101947.13;5052902;28;20486;-70
2022/07/02 08:01:03;;;;;;;2.17;1.70;;;;;;;20.58;66.25;101948.53;5052576;28;20528;-70
2022/07/02 08:03:29;;;;;;;1.70;1.47;;;;;;;20.66;69.18;101947.66;5052459;28;20472;-70
2022/07/02 08:05:58;;;;;;;4.63;1.80;;;;;;;20.78;66.17;101949.66;5052779;28;20536;-70
2022/07/02 08:08:24;;;;;;;1.87;1.33;;;;;;;20.86;64.48;101952.34;5052670;28;20525;-70
2022/07/02 08:10:51;;;;;;;1.60;1.40;;;;;;;20.94;62.08;101955.34;5052442;28;20485;-69
2022/07/02 08:13:19;;;;;;;1.63;1.40;;;;;;;20.99;62.25;101958.72;5052352;28;20474;-70
2022/07/02 08:15:46;;;;;;;1.50;1.20;;;;;;;21.12;60.37;101954.06;5052436;28;20446;-70
2022/07/02 08:18:12;;;;;;;1.93;1.60;;;;;;;21.26;59.96;101954.56;5052672;28;20478;-69
2022/07/02 08:20:39;;;;;;;7.17;1.20;;;;;;;21.34;60.00;101958.41;5052522;28;20525;-69
2022/07/02 08:23:06;;;;;;;5.50;1.23;;;;;;;21.38;58.51;101967.59;5052259;28;20549;-69
2022/07/02 08:25:33;;;;;;;2.50;1.60;;;;;;;21.45;59.88;101964.28;5052287;28;20945;-69
2022/07/02 08:27:59;;;;;;;1.40;0.90;;;;;;;21.39;59.75;101967.28;5052596;28;20537;-70
2022/07/02 08:30:27;;;;;;;2.57;1.40;;;;;;;21.41;59.76;101962.22;5052564;28;20580;-69
2022/07/02 08:32:54;;;;;;;2.03;1.30;;;;;;;21.44;60.88;101974.50;5052222;28;21022;-69
2022/07/02 08:35:21;;;;;;;7.40;1.50;;;;;;;21.54;60.61;101965.78;5052571;28;20521;-69
2022/07/02 08:37:47;;;;;;;1.60;1.20;;;;;;;21.50;55.74;101973.13;5052568;28;20453;-73
2022/07/02 08:40:14;;;;;;;1.20;0.90;;;;;;;21.63;52.75;101962.94;5055553;28;20521;-71
2022/07/02 08:42:42;;;;;;;1.10;0.83;;;;;;;21.64;54.01;101975.56;5056098;28;20828;-70
2022/07/02 08:45:12;;;;;;;1.23;0.77;;;;;;;21.64;55.44;101967.31;5055712;28;20952;-69
2022/07/02 08:47:41;;;;;;;1.47;1.17;;;;;;;21.66;56.81;101962.25;5055765;28;20450;-69
2022/07/02 08:50:10;;;;;;;1.73;1.37;;;;;;;21.87;57.00;101967.69;5056001;28;20489;-69
2022/07/02 08:52:40;;;;;;;1.30;1.10;;;;;;;22.14;56.17;101971.75;5056221;28;20530;-69
2022/07/02 08:55:07;;;;;;;2.13;1.23;;;;;;;22.35;53.34;101969.63;5055785;28;20825;-70
2022/07/02 08:57:34;;;;;;;2.27;1.30;;;;;;;22.34;50.98;101965.25;5055499;28;20894;-70
2022/07/02 09:00:01;;;;;;;2.00;1.27;;;;;;;22.42;50.51;101969.06;5055422;28;20465;-69
2022/07/02 09:02:28;;;;;;;1.17;0.90;;;;;;;22.39;51.92;101972.50;5055787;28;20541;-69
2022/07/02 09:04:58;;;;;;;2.43;1.50;;;;;;;22.25;52.35;101959.06;5055806;28;20439;-69
2022/07/02 09:07:25;;;;;;;1.53;1.00;;;;;;;22.25;52.56;101956.31;5055615;28;20448;-70
2022/07/02 09:09:53;;;;;;;1.50;0.90;;;;;;;22.28;53.58;101955.63;5055401;28;20933;-70
2022/07/02 09:12:23;;;;;;;3.27;1.27;;;;;;;22.34;54.12;101954.22;5055440;28;20558;-70
2022/07/02 09:14:49;;;;;;;7.10;1.40;;;;;;;22.32;48.75;101961.25;5055654;28;20450;-71
2022/07/02 09:17:16;;;;;;;1.37;0.97;;;;;;;22.34;49.42;101956.97;5055639;28;20478;-70
2022/07/02 09:19:43;;;;;;;1.97;1.07;;;;;;;22.32;51.36;101953.78;5055126;28;20449;-70
2022/07/02 09:22:12;;;;;;;1.50;1.00;;;;;;;22.35;51.72;101957.78;5055436;28;20464;-70
2022/07/02 09:24:42;;;;;;;1.30;1.00;;;;;;;22.37;53.72;101948.00;5055253;28;20438;-70
2022/07/02 09:27:10;;;;;;;4.63;0.90;;;;;;;22.44;51.30;101946.59;5055195;28;20511;-70
2022/07/02 09:29:44;;;;;;;1.17;0.80;;;;;;;22.45;50.80;101942.72;5055013;28;21033;-70
2022/07/02 09:32:11;;;;;;;1.87;1.63;;;;;;;22.52;52.97;101940.94;5055306;28;20533;-70
2022/07/02 09:34:42;;;;;;;1.37;1.10;;;;;;;22.70;51.79;101933.19;5055344;28;20438;-70
2022/07/02 09:37:18;;;;;;;1.00;0.90;;;;;;;22.80;50.84;101938.22;5054935;28;20450;-70
2022/07/02 09:39:46;;;;;;;1.20;0.70;;;;;;;22.56;48.50;101941.84;5055464;28;20446;-71
2022/07/02 09:42:23;;;;;;;1.40;1.07;;;;;;;22.58;50.42;101936.00;5055139;28;20549;-70
2022/07/02 09:44:49;;;;;;;1.57;1.17;;;;;;;22.71;47.65;101934.81;5055201;28;20421;-71
2022/07/02 09:47:16;;;;;;;1.23;0.63;;;;;;;22.71;48.57;101939.50;5054985;28;20450;-70
2022/07/02 09:49:47;;;;;;;0.90;0.60;;;;;;;22.82;48.48;101930.38;5054327;28;21022;-70
2022/07/02 09:52:15;;;;;;;1.17;0.80;;;;;;;22.94;45.78;101926.00;5054405;28;20975;-70
2022/07/02 09:54:45;;;;;;;0.80;0.50;;;;;;;23.02;46.60;101925.00;5054820;28;20461;-70
2022/07/02 09:57:12;;;;;;;1.13;0.70;;;;;;;23.04;45.89;101925.47;5054708;28;20889;-70
2022/07/02 09:59:40;;;;;;;2.23;0.90;;;;;;;23.17;46.80;101930.59;5054715;28;20434;-70
2022/07/02 10:02:18;;;;;;;1.17;0.70;;;;;;;23.23;47.84;101933.88;5054250;28;20975;-70
2022/07/02 10:04:45;;;;;;;0.90;0.77;;;;;;;23.29;46.55;101935.25;5054701;28;20420;-70
2022/07/02 10:07:12;;;;;;;1.70;0.83;;;;;;;23.34;48.56;101929.44;5054658;28;20881;-71
2022/07/02 10:09:42;;;;;;;1.03;0.73;;;;;;;23.42;48.51;101936.78;5054519;28;20489;-70
2022/07/02 10:12:11;;;;;;;0.93;0.83;;;;;;;23.44;48.25;101941.94;5054217;28;20482;-71
2022/07/02 10:14:38;;;;;;;2.33;0.80;;;;;;;23.50;47.46;101934.19;5054550;28;20445;-70
2022/07/02 10:17:06;;;;;;;1.07;0.70;;;;;;;23.66;47.09;101935.03;5054367;28;20450;-70
2022/07/02 10:19:33;;;;;;;3.50;0.90;;;;;;;23.79;44.24;101932.97;5054351;28;20813;-70
2022/07/02 10:22:01;;;;;;;0.83;0.70;;;;;;;23.82;45.32;101937.78;5054122;28;20549;-70
2022/07/02 10:24:28;;;;;;;0.90;0.70;;;;;;;23.83;45.91;101934.66;5054103;28;20435;-70
2022/07/02 10:26:55;;;;;;;2.23;0.80;;;;;;;23.73;47.56;101926.09;5054101;28;20536;-70
2022/07/02 10:29:24;;;;;;;1.23;0.87;;;;;;;23.58;44.91;101927.66;5053986;28;20902;-70
2022/07/02 10:31:59;;;;;;;0.90;0.70;;;;;;;23.56;45.21;101936.34;5053674;28;20446;-71
2022/07/02 10:34:38;;;;;;;0.80;0.67;;;;;;;23.72;45.49;101933.59;5054080;28;20430;-71
2022/07/02 10:37:05;;;;;;;1.57;1.10;;;;;;;23.79;44.14;101928.22;5053776;28;20488;-70
2022/07/02 10:39:38;;;;;;;0.80;0.70;;;;;;;23.70;44.69;101933.16;5053842;28;20525;-70
2022/07/02 10:42:06;;;;;;;1.87;0.80;;;;;;;23.77;46.08;101929.75;5053379;28;20465;-70
2022/07/02 10:44:38;;;;;;;0.70;0.60;;;;;;;23.71;45.75;101937.50;5053568;28;20449;-70
2022/07/02 10:47:05;;;;;;;1.13;0.73;;;;;;;23.83;45.72;101937.44;5053972;28;20437;-71
2022/07/02 10:49:32;;;;;;;2.23;0.87;;;;;;;23.81;44.21;101936.97;5053748;28;20449;-71
2022/07/02 10:51:59;;;;;;;0.90;0.60;;;;;;;23.76;45.93;101940.00;5053640;28;20465;-70
2022/07/02 10:54:32;;;;;;;1.30;0.70;;;;;;;23.71;47.05;101931.19;5053688;28;20445;-71
2022/07/02 10:56:58;;;;;;;1.00;0.70;;;;;;;23.78;47.30;101932.16;5053681;28;20513;-71
2022/07/02 10:59:27;;;;;;;0.80;0.50;;;;;;;23.94;45.13;101934.09;5053355;28;20943;-71
2022/07/02 11:02:02;;;;;;;1.77;0.80;;;;;;;23.98;45.19;101935.00;5053388;28;20462;-71
2022/07/02 11:04:29;;;;;;;1.37;0.80;;;;;;;24.03;45.46;101929.19;5053544;28;20444;-71
2022/07/02 11:07:05;;;;;;;1.70;1.00;;;;;;;24.11;44.92;101928.19;5053581;28;20453;-71
2022/07/02 11:09:32;;;;;;;1.30;0.83;;;;;;;24.10;44.43;101909.97;5053549;28;20426;-71
2022/07/02 11:12:01;;;;;;;5.47;1.30;;;;;;;24.14;44.14;101913.63;5053237;28;20470;-71
2022/07/02 11:14:28;;;;;;;1.40;0.67;;;;;;;24.35;46.56;101908.56;5053454;28;20426;-71
2022/07/02 11:16:56;;;;;;;0.80;0.50;;;;;;;24.53;41.35;101913.72;5079470;22;20473;-68
2022/07/02 11:19:26;;;;;;;3.33;0.70;;;;;;;24.86;40.79;101908.44;5073053;28;20945;-68
2022/07/02 11:21:54;;;;;;;1.17;0.50;;;;;;;25.28;40.20;101907.66;5073428;28;20443;-67
2022/07/02 11:24:23;;;;;;;0.80;0.67;;;;;;;25.63;41.21;101907.47;5073645;28;20442;-68
2022/07/02 11:26:50;;;;;;;4.20;1.00;;;;;;;26.03;39.99;101910.84;5073222;28;20888;-68